Terminal Aerodrome Forecast
Issued by NWS

Home | Current Version | Previous Version | Text Only | Print | Product List | Glossary On
Versions: 1 2 3 4 5 6 7 8 9 10 11 12 13 14 15 16 17 18 19 20 21 22 23 24 25 26 27
000
FTUS43 KGLD 220530
TAFMCK
TAF
KMCK 220530Z 2206/2306 14006KT P6SM BKN090
     FM221400 18012KT P6SM BKN200
     FM221800 17017G28KT P6SM SCT080 BKN150
     FM230100 16012KT P6SM VCTS BKN060CB=

USA.gov is the U.S. government's official web portal to all federal, state and local government web resources and services.